createdAt,value
2022-12-29T00:01:19.038Z,1.77
2022-12-29T00:03:45.265Z,1.80
2022-12-29T00:06:14.319Z,2.42
2022-12-29T00:08:41.201Z,2.30
2022-12-29T00:11:07.786Z,1.85
2022-12-29T00:13:33.972Z,1.90
2022-12-29T00:16:00.204Z,2.03
2022-12-29T00:18:26.372Z,2.10
2022-12-29T00:20:52.602Z,2.40
2022-12-29T00:23:22.102Z,2.30
2022-12-29T00:25:57.183Z,1.67
2022-12-29T00:28:23.392Z,2.40
2022-12-29T00:30:49.598Z,2.20
2022-12-29T00:33:15.756Z,2.00
2022-12-29T00:35:41.921Z,1.95
2022-12-29T00:38:08.091Z,1.90
2022-12-29T00:40:34.322Z,1.95
2022-12-29T00:43:00.512Z,2.13
2022-12-29T00:45:26.683Z,1.80
2022-12-29T00:47:52.830Z,2.03
2022-12-29T00:50:18.961Z,2.78
2022-12-29T00:52:45.077Z,1.55
2022-12-29T00:55:11.662Z,1.90
2022-12-29T00:57:37.815Z,1.92
2022-12-29T01:00:03.982Z,1.75
2022-12-29T01:02:30.240Z,1.80
2022-12-29T01:04:56.526Z,2.22
2022-12-29T01:07:22.676Z,1.60
2022-12-29T01:09:48.868Z,1.95
2022-12-29T01:12:15.058Z,1.45
2022-12-29T01:14:41.175Z,1.83
2022-12-29T01:17:07.423Z,1.63
2022-12-29T01:19:33.665Z,1.52
2022-12-29T01:22:00.156Z,1.92
2022-12-29T01:24:26.284Z,1.80
2022-12-29T01:26:52.490Z,2.05
2022-12-29T01:29:18.657Z,1.70
2022-12-29T01:31:44.833Z,1.45
2022-12-29T01:34:11.014Z,1.35
2022-12-29T01:36:37.163Z,1.42
2022-12-29T01:39:03.347Z,1.40
2022-12-29T01:41:29.474Z,1.88
2022-12-29T01:43:55.660Z,1.45
2022-12-29T01:46:21.886Z,1.63
2022-12-29T01:48:48.101Z,1.50
2022-12-29T01:51:14.238Z,1.20
2022-12-29T01:53:40.382Z,1.45
2022-12-29T01:56:06.519Z,1.23
2022-12-29T01:58:33.267Z,1.10
2022-12-29T02:01:00.517Z,1.15
2022-12-29T02:03:26.765Z,1.30
2022-12-29T02:05:52.960Z,1.40
2022-12-29T02:08:19.100Z,1.00
2022-12-29T02:10:45.307Z,1.50
2022-12-29T02:13:11.479Z,1.70
2022-12-29T02:15:37.678Z,1.10
2022-12-29T02:18:03.827Z,1.20
2022-12-29T02:20:30.139Z,1.27
2022-12-29T02:22:56.292Z,1.15
2022-12-29T02:25:22.428Z,1.27
2022-12-29T02:27:48.675Z,1.40
2022-12-29T02:30:14.809Z,1.50
2022-12-29T02:32:40.990Z,1.40
2022-12-29T02:35:07.106Z,1.33
2022-12-29T02:37:33.596Z,1.02
2022-12-29T02:40:00.322Z,1.42
2022-12-29T02:42:26.563Z,1.30
2022-12-29T02:44:52.690Z,1.42
2022-12-29T02:47:18.865Z,1.40
2022-12-29T02:49:45.020Z,1.30
2022-12-29T02:52:11.184Z,1.13
2022-12-29T02:54:37.348Z,1.10
2022-12-29T02:57:03.489Z,1.35
2022-12-29T02:59:29.668Z,1.50
2022-12-29T03:01:55.964Z,1.30
2022-12-29T03:04:22.236Z,1.65
2022-12-29T03:06:48.387Z,1.00
2022-12-29T03:09:18.432Z,1.08
2022-12-29T03:11:45.385Z,1.60
2022-12-29T03:14:11.518Z,1.33
2022-12-29T03:16:37.782Z,1.50
2022-12-29T03:19:03.994Z,1.38
2022-12-29T03:21:30.118Z,0.95
2022-12-29T03:23:56.304Z,1.50
2022-12-29T03:26:22.449Z,1.70
2022-12-29T03:28:48.618Z,1.33
2022-12-29T03:31:14.819Z,1.40
2022-12-29T03:33:40.997Z,1.42
2022-12-29T03:36:07.189Z,1.50
2022-12-29T03:38:33.600Z,1.25
2022-12-29T03:41:00.627Z,1.75
2022-12-29T03:43:26.791Z,1.42
2022-12-29T03:45:52.946Z,1.50
2022-12-29T03:48:19.142Z,1.35
2022-12-29T03:50:45.312Z,1.15
2022-12-29T03:53:11.460Z,1.65
2022-12-29T03:55:37.573Z,1.85
2022-12-29T03:58:03.758Z,0.95
2022-12-29T04:00:29.894Z,1.23
2022-12-29T04:02:56.253Z,1.15
2022-12-29T04:05:22.545Z,1.48
2022-12-29T04:07:48.741Z,1.40
2022-12-29T04:10:14.885Z,1.20
2022-12-29T04:12:41.057Z,1.08
2022-12-29T04:15:07.260Z,1.33
2022-12-29T04:17:33.584Z,1.30
2022-12-29T04:20:00.413Z,1.20
2022-12-29T04:22:26.537Z,1.48
2022-12-29T04:24:52.684Z,1.42
2022-12-29T04:27:18.876Z,1.55
2022-12-29T04:29:45.136Z,1.40
2022-12-29T04:32:11.279Z,1.40
2022-12-29T04:34:37.461Z,1.33
2022-12-29T04:37:03.664Z,1.50
2022-12-29T04:39:29.790Z,1.70
2022-12-29T04:41:55.954Z,1.10
2022-12-29T04:44:22.104Z,1.15
2022-12-29T04:46:48.263Z,0.95
2022-12-29T04:49:14.416Z,1.10
2022-12-29T04:51:40.528Z,1.38
2022-12-29T04:54:06.717Z,1.00
2022-12-29T04:56:32.911Z,1.35
2022-12-29T04:58:59.042Z,1.40
2022-12-29T05:01:25.258Z,1.40
2022-12-29T05:03:51.547Z,1.40
2022-12-29T05:06:17.772Z,1.10
2022-12-29T05:08:44.827Z,1.25
2022-12-29T05:11:10.977Z,1.40
2022-12-29T05:13:38.229Z,1.23
2022-12-29T05:16:04.448Z,1.30
2022-12-29T05:18:30.655Z,1.42
2022-12-29T05:20:56.795Z,1.52
2022-12-29T05:23:22.958Z,1.05
2022-12-29T05:25:49.177Z,1.30
2022-12-29T05:28:15.350Z,1.38
2022-12-29T05:30:41.526Z,1.38
2022-12-29T05:33:07.771Z,1.30
2022-12-29T05:35:33.945Z,1.40
2022-12-29T05:38:00.159Z,1.33
2022-12-29T05:40:26.384Z,0.98
2022-12-29T05:42:52.582Z,1.30
2022-12-29T05:45:18.785Z,1.23
2022-12-29T05:47:44.917Z,1.20
2022-12-29T05:50:11.041Z,1.42
2022-12-29T05:52:37.241Z,1.67
2022-12-29T05:55:03.403Z,2.00
2022-12-29T05:57:29.553Z,2.08
2022-12-29T05:59:55.681Z,1.33
2022-12-29T06:02:21.980Z,1.05
2022-12-29T06:04:48.246Z,1.30
2022-12-29T06:07:14.409Z,1.20
2022-12-29T06:09:40.554Z,1.38
2022-12-29T06:12:06.702Z,1.42
2022-12-29T06:14:32.835Z,1.30
2022-12-29T06:16:59.003Z,1.40
2022-12-29T06:19:25.145Z,1.55
2022-12-29T06:21:51.327Z,1.40
2022-12-29T06:24:17.492Z,1.73
2022-12-29T06:26:43.683Z,1.20
2022-12-29T06:29:09.809Z,1.48
2022-12-29T06:31:36.007Z,1.35
2022-12-29T06:34:07.960Z,1.10
2022-12-29T06:36:34.555Z,1.63
2022-12-29T06:39:00.719Z,1.67
2022-12-29T06:41:31.962Z,1.40
2022-12-29T06:43:58.669Z,1.52
2022-12-29T06:46:24.840Z,1.63
2022-12-29T06:48:51.031Z,1.70
2022-12-29T06:51:17.223Z,1.58
2022-12-29T06:53:43.598Z,1.67
2022-12-29T06:56:09.747Z,1.70
2022-12-29T06:58:35.877Z,1.45
2022-12-29T07:01:02.164Z,1.55
2022-12-29T07:03:28.367Z,2.67
2022-12-29T07:05:54.623Z,1.63
2022-12-29T07:08:20.816Z,1.70
2022-12-29T07:10:46.951Z,1.63
2022-12-29T07:13:13.080Z,1.60
2022-12-29T07:15:39.238Z,1.05
2022-12-29T07:18:05.357Z,2.22
2022-12-29T07:20:31.505Z,1.65
2022-12-29T07:22:57.784Z,1.83
2022-12-29T07:25:23.937Z,1.30
2022-12-29T07:27:50.076Z,1.90
2022-12-29T07:30:16.212Z,1.85
2022-12-29T07:32:43.587Z,1.52
2022-12-29T07:35:09.783Z,1.95
2022-12-29T07:37:35.953Z,1.80
2022-12-29T07:40:02.086Z,1.85
2022-12-29T07:42:28.246Z,1.63
2022-12-29T07:44:54.414Z,1.75
2022-12-29T07:47:20.542Z,1.90
2022-12-29T07:49:46.737Z,1.95
2022-12-29T07:52:12.904Z,1.80
2022-12-29T07:54:40.082Z,1.40
2022-12-29T07:57:06.276Z,2.00
2022-12-29T07:59:32.435Z,1.75
2022-12-29T08:01:58.686Z,1.73
2022-12-29T08:04:24.966Z,1.75
2022-12-29T08:06:51.151Z,1.90
2022-12-29T08:09:22.252Z,2.33
2022-12-29T08:11:48.971Z,1.90
2022-12-29T08:14:15.131Z,1.63
2022-12-29T08:16:41.296Z,1.80
2022-12-29T08:19:09.796Z,1.98
2022-12-29T08:21:35.947Z,1.90
2022-12-29T08:24:02.103Z,1.80
2022-12-29T08:26:28.301Z,1.65
2022-12-29T08:28:54.442Z,2.00
2022-12-29T08:31:20.657Z,1.63
2022-12-29T08:33:46.912Z,1.73
2022-12-29T08:36:13.105Z,1.80
2022-12-29T08:38:39.281Z,2.30
2022-12-29T08:41:05.480Z,1.40
2022-12-29T08:43:31.667Z,2.00
2022-12-29T08:45:57.916Z,1.88
2022-12-29T08:48:24.157Z,1.80
2022-12-29T08:50:50.329Z,1.70
2022-12-29T08:53:16.726Z,1.85
2022-12-29T08:55:42.915Z,1.70
2022-12-29T08:58:09.109Z,2.22
2022-12-29T09:00:35.270Z,1.80
2022-12-29T09:03:01.541Z,2.45
2022-12-29T09:05:27.864Z,1.98
2022-12-29T09:07:54.035Z,1.98
2022-12-29T09:10:20.152Z,1.70
2022-12-29T09:12:46.411Z,1.90
2022-12-29T09:15:12.586Z,1.92
2022-12-29T09:17:38.732Z,1.90
2022-12-29T09:20:04.923Z,1.85
2022-12-29T09:22:31.065Z,1.73
2022-12-29T09:24:57.218Z,2.17
2022-12-29T09:27:23.386Z,2.00
2022-12-29T09:29:50.327Z,2.20
2022-12-29T09:32:18.713Z,1.80
2022-12-29T09:34:45.568Z,1.33
2022-12-29T09:37:11.696Z,1.95
2022-12-29T09:39:37.860Z,1.65
2022-12-29T09:42:04.041Z,1.90
2022-12-29T09:44:30.185Z,1.90
2022-12-29T09:46:56.475Z,1.73
2022-12-29T09:49:22.793Z,1.60
2022-12-29T09:51:49.435Z,1.77
2022-12-29T09:54:15.603Z,1.95
2022-12-29T09:56:41.772Z,1.60
2022-12-29T09:59:07.949Z,1.80
2022-12-29T10:01:34.170Z,1.60
2022-12-29T10:04:00.392Z,2.00
2022-12-29T10:06:26.585Z,1.92
2022-12-29T10:08:52.910Z,2.30
2022-12-29T10:11:19.137Z,2.08
2022-12-29T10:13:45.322Z,1.70
2022-12-29T10:16:11.524Z,2.35
2022-12-29T10:18:37.796Z,1.63
2022-12-29T10:21:03.989Z,2.13
2022-12-29T10:23:30.194Z,1.80
2022-12-29T10:25:56.407Z,1.90
2022-12-29T10:28:22.555Z,1.60
2022-12-29T10:30:48.781Z,1.80
2022-12-29T10:33:14.938Z,1.50
2022-12-29T10:35:41.470Z,1.90
2022-12-29T10:38:07.707Z,1.55
2022-12-29T10:40:33.866Z,1.67
2022-12-29T10:43:00.192Z,1.58
2022-12-29T10:45:26.407Z,1.88
2022-12-29T10:47:55.619Z,1.60
2022-12-29T10:50:21.776Z,1.40
2022-12-29T10:52:47.922Z,2.17
2022-12-29T10:55:14.110Z,1.70
2022-12-29T10:57:40.239Z,2.00
2022-12-29T11:00:06.449Z,1.80
2022-12-29T11:02:32.731Z,1.17
2022-12-29T11:04:58.921Z,1.65
2022-12-29T11:07:27.291Z,1.40
2022-12-29T11:09:53.749Z,1.60
2022-12-29T11:12:19.890Z,1.45
2022-12-29T11:14:46.078Z,1.20
2022-12-29T11:17:12.277Z,1.20
2022-12-29T11:19:41.069Z,1.20
2022-12-29T11:22:07.522Z,1.50
2022-12-29T11:24:33.701Z,1.40
2022-12-29T11:26:59.829Z,1.75
2022-12-29T11:29:26.037Z,1.35
2022-12-29T11:31:52.251Z,1.30
2022-12-29T11:34:18.426Z,1.58
2022-12-29T11:36:44.567Z,1.58
2022-12-29T11:39:13.973Z,1.17
2022-12-29T11:41:40.467Z,1.40
2022-12-29T11:44:06.648Z,1.40
2022-12-29T11:46:32.869Z,1.38
2022-12-29T11:48:59.066Z,1.00
2022-12-29T11:51:25.517Z,1.10
2022-12-29T11:53:51.769Z,0.82
2022-12-29T11:56:17.942Z,1.30
2022-12-29T11:58:44.088Z,0.98
2022-12-29T12:01:10.243Z,1.75
2022-12-29T12:03:36.576Z,0.82
2022-12-29T12:06:02.845Z,1.27
2022-12-29T12:08:28.986Z,1.10
2022-12-29T12:10:55.160Z,0.60
2022-12-29T12:13:21.339Z,0.73
2022-12-29T12:15:50.137Z,1.05
2022-12-29T12:18:20.582Z,1.00
2022-12-29T12:20:46.795Z,0.90
2022-12-29T12:23:12.976Z,1.10
2022-12-29T12:25:39.107Z,0.93
2022-12-29T12:28:05.342Z,1.27
2022-12-29T12:30:31.545Z,1.30
2022-12-29T12:32:57.687Z,1.10
2022-12-29T12:35:23.865Z,1.17
2022-12-29T12:37:50.519Z,1.50
2022-12-29T12:40:16.650Z,1.42
2022-12-29T12:42:42.809Z,1.50
2022-12-29T12:45:09.001Z,1.10
2022-12-29T12:47:35.124Z,1.50
2022-12-29T12:50:01.261Z,1.50
2022-12-29T12:52:27.426Z,1.40
2022-12-29T12:54:53.610Z,1.80
2022-12-29T12:57:19.799Z,1.85
2022-12-29T12:59:45.978Z,1.70
2022-12-29T13:02:12.218Z,1.77
2022-12-29T13:04:38.469Z,1.70
2022-12-29T13:07:04.647Z,2.05
2022-12-29T13:09:30.852Z,1.60
2022-12-29T13:11:57.046Z,2.15
2022-12-29T13:14:23.247Z,1.88
2022-12-29T13:16:49.467Z,1.70
2022-12-29T13:19:15.668Z,2.17
2022-12-29T13:21:41.802Z,2.45
2022-12-29T13:24:08.009Z,1.98
2022-12-29T13:26:34.199Z,1.58
2022-12-29T13:29:00.428Z,1.42
2022-12-29T13:31:26.662Z,1.60
2022-12-29T13:33:52.870Z,2.00
2022-12-29T13:36:19.085Z,2.38
2022-12-29T13:38:45.288Z,1.45
2022-12-29T13:41:11.521Z,1.73
2022-12-29T13:43:37.704Z,2.20
2022-12-29T13:46:03.955Z,1.67
2022-12-29T13:48:30.137Z,1.50
2022-12-29T13:50:56.350Z,2.15
2022-12-29T13:53:22.557Z,2.15
2022-12-29T13:55:48.785Z,1.90
2022-12-29T13:58:14.944Z,1.90
2022-12-29T14:00:41.129Z,2.28
2022-12-29T14:03:07.705Z,2.30
2022-12-29T14:05:34.091Z,2.40
2022-12-29T14:08:00.216Z,3.67
2022-12-29T14:10:26.416Z,3.35
2022-12-29T14:12:52.584Z,2.60
2022-12-29T14:15:18.800Z,3.47
2022-12-29T14:17:46.023Z,4.30
2022-12-29T14:20:12.244Z,4.63
2022-12-29T14:22:38.388Z,4.82
2022-12-29T14:25:04.573Z,6.18
2022-12-29T14:27:30.782Z,6.53
2022-12-29T14:29:56.965Z,13.35
2022-12-29T14:32:23.123Z,11.10
2022-12-29T14:34:52.646Z,10.98
2022-12-29T14:37:19.131Z,6.43
2022-12-29T14:39:45.302Z,2.08
2022-12-29T14:42:11.477Z,1.25
2022-12-29T14:44:37.632Z,1.65
2022-12-29T14:47:03.844Z,1.58
2022-12-29T14:49:30.087Z,2.67
2022-12-29T14:51:56.262Z,1.27
2022-12-29T14:54:22.429Z,1.90
2022-12-29T14:56:48.629Z,1.27
2022-12-29T14:59:14.820Z,1.90
2022-12-29T15:01:41.149Z,1.33
2022-12-29T15:04:07.498Z,1.15
2022-12-29T15:06:33.648Z,1.25
2022-12-29T15:08:59.840Z,0.85
2022-12-29T15:11:26.019Z,1.10
2022-12-29T15:13:52.187Z,1.00
2022-12-29T15:16:18.359Z,1.13
2022-12-29T15:18:44.532Z,0.82
2022-12-29T15:21:10.730Z,1.17
2022-12-29T15:23:36.854Z,0.93
2022-12-29T15:26:03.041Z,0.90
2022-12-29T15:28:29.249Z,1.05
2022-12-29T15:30:55.413Z,1.75
2022-12-29T15:33:21.540Z,1.00
2022-12-29T15:35:47.730Z,1.10
2022-12-29T15:38:13.910Z,0.90
2022-12-29T15:40:40.059Z,1.20
2022-12-29T15:43:06.208Z,1.10
2022-12-29T15:45:32.362Z,1.40
2022-12-29T15:47:58.557Z,2.15
2022-12-29T15:50:24.670Z,1.92
2022-12-29T15:52:50.890Z,2.40
2022-12-29T15:55:17.087Z,2.83
2022-12-29T15:57:43.204Z,2.83
2022-12-29T16:00:09.357Z,2.40
2022-12-29T16:02:36.056Z,2.80
2022-12-29T16:05:17.155Z,2.35
2022-12-29T16:07:44.086Z,2.40
2022-12-29T16:10:10.334Z,2.17
2022-12-29T16:12:36.484Z,2.45
2022-12-29T16:15:02.671Z,4.78
2022-12-29T16:17:28.796Z,3.80
2022-12-29T16:19:54.951Z,4.57
2022-12-29T16:22:21.100Z,5.50
2022-12-29T16:24:47.277Z,4.60
2022-12-29T16:27:13.438Z,5.15
2022-12-29T16:29:39.616Z,5.35
2022-12-29T16:32:05.787Z,6.68
2022-12-29T16:34:31.966Z,6.72
2022-12-29T16:36:58.125Z,9.40
2022-12-29T16:39:24.273Z,6.13
2022-12-29T16:41:50.436Z,4.80
2022-12-29T16:44:16.606Z,4.32
2022-12-29T16:46:42.753Z,3.10
2022-12-29T16:49:08.895Z,3.20
2022-12-29T16:51:35.021Z,4.55
2022-12-29T16:54:01.265Z,5.78
2022-12-29T16:56:27.440Z,4.70
2022-12-29T16:58:53.581Z,4.28
2022-12-29T17:01:20.031Z,3.65
2022-12-29T17:03:46.569Z,3.67
2022-12-29T17:06:12.787Z,3.15
2022-12-29T17:08:38.963Z,2.20
2022-12-29T17:11:05.106Z,2.42
2022-12-29T17:13:31.308Z,2.72
2022-12-29T17:15:57.495Z,2.92
2022-12-29T17:18:23.724Z,2.80
2022-12-29T17:20:49.991Z,3.08
2022-12-29T17:23:21.132Z,9.32
2022-12-29T17:25:48.879Z,9.48
2022-12-29T17:28:15.112Z,5.97
2022-12-29T17:30:41.346Z,2.58
2022-12-29T17:33:07.640Z,2.80
2022-12-29T17:35:33.780Z,3.17
2022-12-29T17:37:59.945Z,3.17
2022-12-29T17:40:26.108Z,3.00
2022-12-29T17:42:52.283Z,3.15
2022-12-29T17:45:18.432Z,2.35
2022-12-29T17:47:44.622Z,3.22
2022-12-29T17:50:10.806Z,3.20
2022-12-29T17:52:36.973Z,5.50
2022-12-29T17:55:03.108Z,2.63
2022-12-29T17:57:29.294Z,3.13
2022-12-29T17:59:55.468Z,2.80
2022-12-29T18:02:21.944Z,2.30
2022-12-29T18:04:48.226Z,3.00
2022-12-29T18:07:14.372Z,2.35
2022-12-29T18:09:40.619Z,2.22
2022-12-29T18:12:06.807Z,2.17
2022-12-29T18:14:32.984Z,1.85
2022-12-29T18:16:59.207Z,1.85
2022-12-29T18:19:26.903Z,1.70
2022-12-29T18:21:55.877Z,2.97
2022-12-29T18:24:22.033Z,2.70
2022-12-29T18:26:48.218Z,2.90
2022-12-29T18:29:14.412Z,2.28
2022-12-29T18:31:40.714Z,1.80
2022-12-29T18:34:06.866Z,1.85
2022-12-29T18:36:32.999Z,2.25
2022-12-29T18:38:59.168Z,2.28
2022-12-29T18:41:25.341Z,1.42
2022-12-29T18:43:51.535Z,2.03
2022-12-29T18:46:22.730Z,1.83
2022-12-29T18:48:49.713Z,2.55
2022-12-29T18:51:15.927Z,2.40
2022-12-29T18:53:42.054Z,3.05
2022-12-29T18:56:08.272Z,3.00
2022-12-29T18:58:34.473Z,2.22
2022-12-29T19:01:00.658Z,2.45
2022-12-29T19:03:29.217Z,3.00
2022-12-29T19:05:57.441Z,2.70
2022-12-29T19:08:23.621Z,2.70
2022-12-29T19:10:49.805Z,3.13
2022-12-29T19:13:16.033Z,2.90
2022-12-29T19:15:42.238Z,2.45
2022-12-29T19:18:42.574Z,2.80
2022-12-29T19:20:54.609Z,3.45
2022-12-29T19:23:20.810Z,2.65
2022-12-29T19:25:47.089Z,2.53
2022-12-29T19:28:13.358Z,3.13
2022-12-29T19:30:39.540Z,2.78
2022-12-29T19:33:09.831Z,2.50
2022-12-29T19:35:36.416Z,1.48
2022-12-29T19:38:02.579Z,3.00
2022-12-29T19:40:28.740Z,3.25
2022-12-29T19:42:54.924Z,2.97
2022-12-29T19:45:21.116Z,2.97
2022-12-29T19:47:47.301Z,2.20
2022-12-29T19:50:13.474Z,2.65
2022-12-29T19:52:39.627Z,2.42
2022-12-29T19:55:05.815Z,2.15
2022-12-29T19:57:32.032Z,2.63
2022-12-29T19:59:59.545Z,2.10
2022-12-29T20:02:25.845Z,2.30
2022-12-29T20:04:52.321Z,2.15
2022-12-29T20:07:18.531Z,1.88
2022-12-29T20:09:44.844Z,2.05
2022-12-29T20:12:11.023Z,2.67
2022-12-29T20:14:37.234Z,3.47
2022-12-29T20:17:11.365Z,3.70
2022-12-29T20:19:38.090Z,3.72
2022-12-29T20:22:04.273Z,2.92
2022-12-29T20:24:30.470Z,2.35
2022-12-29T20:26:56.677Z,3.00
2022-12-29T20:29:24.322Z,1.80
2022-12-29T20:31:53.729Z,2.30
2022-12-29T20:34:20.091Z,1.67
2022-12-29T20:36:46.309Z,2.30
2022-12-29T20:39:12.517Z,2.55
2022-12-29T20:41:38.728Z,3.00
2022-12-29T20:44:04.926Z,2.70
2022-12-29T20:46:41.239Z,3.30
2022-12-29T20:49:09.577Z,2.17
2022-12-29T20:52:04.360Z,2.35
2022-12-29T20:54:21.966Z,2.88
2022-12-29T20:56:48.127Z,2.20
2022-12-29T20:59:29.797Z,2.33
2022-12-29T21:01:56.122Z,2.30
2022-12-29T21:04:22.510Z,2.35
2022-12-29T21:06:48.654Z,2.65
2022-12-29T21:09:14.805Z,2.92
2022-12-29T21:11:40.926Z,2.50
2022-12-29T21:14:07.094Z,2.55
2022-12-29T21:16:33.338Z,2.25
2022-12-29T21:18:59.576Z,2.17
2022-12-29T21:21:25.761Z,2.50
2022-12-29T21:23:51.954Z,1.80
2022-12-29T21:26:18.133Z,2.03
2022-12-29T21:28:44.442Z,1.77
2022-12-29T21:31:10.661Z,1.83
2022-12-29T21:33:36.900Z,1.55
2022-12-29T21:36:03.126Z,2.38
2022-12-29T21:38:29.367Z,1.85
2022-12-29T21:40:55.593Z,1.30
2022-12-29T21:43:21.786Z,1.85
2022-12-29T21:45:48.002Z,1.42
2022-12-29T21:48:14.316Z,1.83
2022-12-29T21:50:40.517Z,2.40
2022-12-29T21:53:06.665Z,1.20
2022-12-29T21:55:40.003Z,1.77
2022-12-29T21:58:10.378Z,1.83
2022-12-29T22:00:36.561Z,2.15
2022-12-29T22:03:02.852Z,1.77
2022-12-29T22:05:29.074Z,1.80
2022-12-29T22:07:55.189Z,1.55
2022-12-29T22:10:21.316Z,1.83
2022-12-29T22:12:47.503Z,2.28
2022-12-29T22:15:13.678Z,1.98
2022-12-29T22:17:44.972Z,2.13
2022-12-29T22:20:15.504Z,2.65
2022-12-29T22:22:41.637Z,2.80
2022-12-29T22:25:07.797Z,2.53
2022-12-29T22:27:33.956Z,1.85
2022-12-29T22:30:02.584Z,2.50
2022-12-29T22:32:28.759Z,2.40
2022-12-29T22:34:54.898Z,1.80
2022-12-29T22:40:02.141Z,2.30
2022-12-29T22:42:28.264Z,2.03
2022-12-29T22:44:54.461Z,2.88
2022-12-29T22:47:20.670Z,1.95
2022-12-29T22:49:47.044Z,2.60
2022-12-29T22:52:14.497Z,4.05
2022-12-29T22:54:40.775Z,2.40
2022-12-29T22:57:06.981Z,1.65
2022-12-29T22:59:33.195Z,1.52
2022-12-29T23:01:59.377Z,1.98
2022-12-29T23:05:01.398Z,2.13
2022-12-29T23:07:11.797Z,2.20
2022-12-29T23:09:37.999Z,2.15
2022-12-29T23:12:04.188Z,1.83
2022-12-29T23:14:30.363Z,1.95
2022-12-29T23:16:56.526Z,1.83
2022-12-29T23:19:22.655Z,1.33
2022-12-29T23:21:48.809Z,1.80
2022-12-29T23:24:14.995Z,1.50
2022-12-29T23:26:41.180Z,1.60
2022-12-29T23:29:07.382Z,1.52
2022-12-29T23:31:33.587Z,1.90
2022-12-29T23:33:59.747Z,2.33
2022-12-29T23:36:25.921Z,1.63
2022-12-29T23:38:52.123Z,2.00
2022-12-29T23:41:18.306Z,1.80
2022-12-29T23:43:44.433Z,2.58
2022-12-29T23:46:10.725Z,1.83
2022-12-29T23:48:36.935Z,1.92
2022-12-29T23:51:03.064Z,2.03
2022-12-29T23:53:29.215Z,2.00
2022-12-29T23:55:55.367Z,2.10
2022-12-29T23:58:21.535Z,2.00
